sensor_id;sensor_type;location;lat;lon;timestamp;temperature;humidity
6018;DHT22;3037;51.068;13.780;2023-03-19T00:02:20;9.90;1.00
6018;DHT22;3037;51.068;13.780;2023-03-19T00:04:46;9.80;1.00
6018;DHT22;3037;51.068;13.780;2023-03-19T00:07:12;9.80;1.00
6018;DHT22;3037;51.068;13.780;2023-03-19T00:09:38;9.70;1.00
6018;DHT22;3037;51.068;13.780;2023-03-19T00:12:04;9.70;1.00
6018;DHT22;3037;51.068;13.780;2023-03-19T00:14:30;9.70;1.00
6018;DHT22;3037;51.068;13.780;2023-03-19T00:16:55;9.70;1.00
6018;DHT22;3037;51.068;13.780;2023-03-19T00:19:21;9.80;1.00
6018;DHT22;3037;51.068;13.780;2023-03-19T00:21:47;9.70;1.00
6018;DHT22;3037;51.068;13.780;2023-03-19T00:24:12;9.70;1.00
6018;DHT22;3037;51.068;13.780;2023-03-19T00:26:38;9.70;1.00
6018;DHT22;3037;51.068;13.780;2023-03-19T00:29:04;9.70;1.00
6018;DHT22;3037;51.068;13.780;2023-03-19T00:31:30;9.70;1.00
6018;DHT22;3037;51.068;13.780;2023-03-19T00:33:56;9.90;1.00
6018;DHT22;3037;51.068;13.780;2023-03-19T00:36:22;9.80;1.00
6018;DHT22;3037;51.068;13.780;2023-03-19T00:38:49;9.80;1.00
6018;DHT22;3037;51.068;13.780;2023-03-19T00:41:14;9.70;1.00
6018;DHT22;3037;51.068;13.780;2023-03-19T00:43:42;9.70;1.00
6018;DHT22;3037;51.068;13.780;2023-03-19T00:46:08;9.60;1.00
6018;DHT22;3037;51.068;13.780;2023-03-19T00:48:33;9.60;1.00
6018;DHT22;3037;51.068;13.780;2023-03-19T00:51:06;9.50;1.00
6018;DHT22;3037;51.068;13.780;2023-03-19T00:53:35;9.40;1.00
6018;DHT22;3037;51.068;13.780;2023-03-19T00:56:01;9.50;1.00
6018;DHT22;3037;51.068;13.780;2023-03-19T00:58:27;9.50;1.00
6018;DHT22;3037;51.068;13.780;2023-03-19T01:00:53;9.40;1.00
6018;DHT22;3037;51.068;13.780;2023-03-19T01:03:19;9.40;1.00
6018;DHT22;3037;51.068;13.780;2023-03-19T01:05:47;9.40;1.00
6018;DHT22;3037;51.068;13.780;2023-03-19T01:08:13;9.30;1.00
6018;DHT22;3037;51.068;13.780;2023-03-19T01:10:39;9.20;1.00
6018;DHT22;3037;51.068;13.780;2023-03-19T01:13:05;9.20;1.00
6018;DHT22;3037;51.068;13.780;2023-03-19T01:15:35;9.10;1.00
6018;DHT22;3037;51.068;13.780;2023-03-19T01:18:00;9.00;1.00
6018;DHT22;3037;51.068;13.780;2023-03-19T01:20:26;9.00;1.00
6018;DHT22;3037;51.068;13.780;2023-03-19T01:22:52;9.10;1.00
6018;DHT22;3037;51.068;13.780;2023-03-19T01:25:17;9.10;1.00
6018;DHT22;3037;51.068;13.780;2023-03-19T01:27:43;9.10;1.00
6018;DHT22;3037;51.068;13.780;2023-03-19T01:30:09;9.20;1.00
6018;DHT22;3037;51.068;13.780;2023-03-19T01:32:35;9.20;1.00
6018;DHT22;3037;51.068;13.780;2023-03-19T01:35:00;9.10;1.00
6018;DHT22;3037;51.068;13.780;2023-03-19T01:37:26;9.20;1.00
6018;DHT22;3037;51.068;13.780;2023-03-19T01:39:51;9.10;1.00
6018;DHT22;3037;51.068;13.780;2023-03-19T01:42:17;9.10;1.00
6018;DHT22;3037;51.068;13.780;2023-03-19T01:44:43;9.00;1.00
6018;DHT22;3037;51.068;13.780;2023-03-19T01:47:18;8.90;1.00
6018;DHT22;3037;51.068;13.780;2023-03-19T01:49:53;9.00;1.00
6018;DHT22;3037;51.068;13.780;2023-03-19T01:52:20;9.00;1.00
6018;DHT22;3037;51.068;13.780;2023-03-19T01:54:47;9.00;1.00
6018;DHT22;3037;51.068;13.780;2023-03-19T01:57:14;9.00;1.00
6018;DHT22;3037;51.068;13.780;2023-03-19T01:59:46;9.00;1.00
6018;DHT22;3037;51.068;13.780;2023-03-19T02:02:29;8.90;1.00
6018;DHT22;3037;51.068;13.780;2023-03-19T02:05:08;8.90;1.00
6018;DHT22;3037;51.068;13.780;2023-03-19T02:07:37;8.80;1.00
6018;DHT22;3037;51.068;13.780;2023-03-19T02:10:06;8.80;1.00
6018;DHT22;3037;51.068;13.780;2023-03-19T02:12:32;8.70;1.00
6018;DHT22;3037;51.068;13.780;2023-03-19T02:14:58;8.80;1.00
6018;DHT22;3037;51.068;13.780;2023-03-19T02:17:24;8.80;1.00
6018;DHT22;3037;51.068;13.780;2023-03-19T02:22:40;9.00;1.00
6018;DHT22;3037;51.068;13.780;2023-03-19T02:25:13;9.10;1.00
6018;DHT22;3037;51.068;13.780;2023-03-19T02:27:40;9.20;1.00
6018;DHT22;3037;51.068;13.780;2023-03-19T02:30:17;9.00;1.00
6018;DHT22;3037;51.068;13.780;2023-03-19T02:32:43;9.00;1.00
6018;DHT22;3037;51.068;13.780;2023-03-19T02:35:09;8.90;1.00
6018;DHT22;3037;51.068;13.780;2023-03-19T02:37:34;8.90;1.00
6018;DHT22;3037;51.068;13.780;2023-03-19T02:40:05;8.70;1.00
6018;DHT22;3037;51.068;13.780;2023-03-19T02:42:33;8.90;1.00
6018;DHT22;3037;51.068;13.780;2023-03-19T02:44:58;8.90;1.00
6018;DHT22;3037;51.068;13.780;2023-03-19T02:47:25;9.00;1.00
6018;DHT22;3037;51.068;13.780;2023-03-19T02:49:50;9.10;1.00
6018;DHT22;3037;51.068;13.780;2023-03-19T02:52:16;9.10;1.00
6018;DHT22;3037;51.068;13.780;2023-03-19T02:54:42;9.10;1.00
6018;DHT22;3037;51.068;13.780;2023-03-19T02:57:08;9.00;1.00
6018;DHT22;3037;51.068;13.780;2023-03-19T02:59:33;9.00;1.00
6018;DHT22;3037;51.068;13.780;2023-03-19T03:01:59;9.00;1.00
6018;DHT22;3037;51.068;13.780;2023-03-19T03:04:24;9.10;1.00
6018;DHT22;3037;51.068;13.780;2023-03-19T03:06:51;9.00;1.00
6018;DHT22;3037;51.068;13.780;2023-03-19T03:09:17;9.00;1.00
6018;DHT22;3037;51.068;13.780;2023-03-19T03:11:42;9.00;1.00
6018;DHT22;3037;51.068;13.780;2023-03-19T03:14:08;9.00;1.00
6018;DHT22;3037;51.068;13.780;2023-03-19T03:16:34;8.90;1.00
6018;DHT22;3037;51.068;13.780;2023-03-19T03:18:59;8.90;1.00
6018;DHT22;3037;51.068;13.780;2023-03-19T03:21:26;8.80;1.00
6018;DHT22;3037;51.068;13.780;2023-03-19T03:23:52;8.80;1.00
6018;DHT22;3037;51.068;13.780;2023-03-19T03:26:17;8.80;1.00
6018;DHT22;3037;51.068;13.780;2023-03-19T03:28:43;8.70;1.00
6018;DHT22;3037;51.068;13.780;2023-03-19T03:31:09;8.70;1.00
6018;DHT22;3037;51.068;13.780;2023-03-19T03:33:34;8.60;1.00
6018;DHT22;3037;51.068;13.780;2023-03-19T03:36:00;8.50;1.00
6018;DHT22;3037;51.068;13.780;2023-03-19T03:38:26;8.30;1.00
6018;DHT22;3037;51.068;13.780;2023-03-19T03:40:52;8.30;1.00
6018;DHT22;3037;51.068;13.780;2023-03-19T03:43:18;8.40;1.00
6018;DHT22;3037;51.068;13.780;2023-03-19T03:45:46;8.30;1.00
6018;DHT22;3037;51.068;13.780;2023-03-19T03:48:12;8.50;1.00
6018;DHT22;3037;51.068;13.780;2023-03-19T03:50:38;8.40;1.00
6018;DHT22;3037;51.068;13.780;2023-03-19T03:53:04;8.40;1.00
6018;DHT22;3037;51.068;13.780;2023-03-19T03:55:30;8.30;1.00
6018;DHT22;3037;51.068;13.780;2023-03-19T03:57:56;8.30;1.00
6018;DHT22;3037;51.068;13.780;2023-03-19T04:00:22;8.40;1.00
6018;DHT22;3037;51.068;13.780;2023-03-19T04:02:48;8.40;1.00
6018;DHT22;3037;51.068;13.780;2023-03-19T04:05:14;8.30;1.00
6018;DHT22;3037;51.068;13.780;2023-03-19T04:07:40;8.20;1.00
6018;DHT22;3037;51.068;13.780;2023-03-19T04:10:07;8.20;1.00
6018;DHT22;3037;51.068;13.780;2023-03-19T04:12:33;8.20;1.00
6018;DHT22;3037;51.068;13.780;2023-03-19T04:14:59;8.10;1.00
6018;DHT22;3037;51.068;13.780;2023-03-19T04:17:25;8.20;1.00
6018;DHT22;3037;51.068;13.780;2023-03-19T04:19:50;8.20;1.00
6018;DHT22;3037;51.068;13.780;2023-03-19T04:22:16;8.10;1.00
6018;DHT22;3037;51.068;13.780;2023-03-19T04:24:41;8.00;1.00
6018;DHT22;3037;51.068;13.780;2023-03-19T04:27:07;8.20;1.00
6018;DHT22;3037;51.068;13.780;2023-03-19T04:29:33;8.00;1.00
6018;DHT22;3037;51.068;13.780;2023-03-19T04:31:58;8.00;1.00
6018;DHT22;3037;51.068;13.780;2023-03-19T04:34:24;7.90;1.00
6018;DHT22;3037;51.068;13.780;2023-03-19T04:36:49;7.80;1.00
6018;DHT22;3037;51.068;13.780;2023-03-19T04:39:16;7.80;1.00
6018;DHT22;3037;51.068;13.780;2023-03-19T04:41:42;7.80;1.00
6018;DHT22;3037;51.068;13.780;2023-03-19T04:44:08;7.80;1.00
6018;DHT22;3037;51.068;13.780;2023-03-19T04:46:33;7.90;1.00
6018;DHT22;3037;51.068;13.780;2023-03-19T04:48:59;8.00;1.00
6018;DHT22;3037;51.068;13.780;2023-03-19T04:51:25;8.10;1.00
6018;DHT22;3037;51.068;13.780;2023-03-19T04:53:51;8.20;1.00
6018;DHT22;3037;51.068;13.780;2023-03-19T04:56:17;8.20;1.00
6018;DHT22;3037;51.068;13.780;2023-03-19T04:58:44;8.20;1.00
6018;DHT22;3037;51.068;13.780;2023-03-19T05:01:10;8.10;1.00
6018;DHT22;3037;51.068;13.780;2023-03-19T05:03:36;8.10;1.00
6018;DHT22;3037;51.068;13.780;2023-03-19T05:06:01;8.10;1.00
6018;DHT22;3037;51.068;13.780;2023-03-19T05:08:27;8.20;1.00
6018;DHT22;3037;51.068;13.780;2023-03-19T05:10:52;8.10;1.00
6018;DHT22;3037;51.068;13.780;2023-03-19T05:13:18;8.20;1.00
6018;DHT22;3037;51.068;13.780;2023-03-19T05:15:44;8.20;1.00
6018;DHT22;3037;51.068;13.780;2023-03-19T05:18:11;8.10;1.00
6018;DHT22;3037;51.068;13.780;2023-03-19T05:20:37;8.00;1.00
6018;DHT22;3037;51.068;13.780;2023-03-19T05:23:03;8.10;1.00
6018;DHT22;3037;51.068;13.780;2023-03-19T05:25:29;8.10;1.00
6018;DHT22;3037;51.068;13.780;2023-03-19T05:27:55;8.10;1.00
6018;DHT22;3037;51.068;13.780;2023-03-19T05:30:21;8.00;1.00
6018;DHT22;3037;51.068;13.780;2023-03-19T05:32:48;8.10;1.00
6018;DHT22;3037;51.068;13.780;2023-03-19T05:35:13;8.20;1.00
6018;DHT22;3037;51.068;13.780;2023-03-19T05:37:39;8.20;1.00
6018;DHT22;3037;51.068;13.780;2023-03-19T05:40:06;8.20;1.00
6018;DHT22;3037;51.068;13.780;2023-03-19T05:42:31;8.30;1.00
6018;DHT22;3037;51.068;13.780;2023-03-19T05:44:57;8.30;1.00
6018;DHT22;3037;51.068;13.780;2023-03-19T05:47:23;8.40;1.00
6018;DHT22;3037;51.068;13.780;2023-03-19T05:49:49;8.40;1.00
6018;DHT22;3037;51.068;13.780;2023-03-19T05:52:14;8.50;1.00
6018;DHT22;3037;51.068;13.780;2023-03-19T05:54:40;8.60;1.00
6018;DHT22;3037;51.068;13.780;2023-03-19T05:57:05;8.60;1.00
6018;DHT22;3037;51.068;13.780;2023-03-19T05:59:32;8.50;1.00
6018;DHT22;3037;51.068;13.780;2023-03-19T06:01:58;8.60;1.00
6018;DHT22;3037;51.068;13.780;2023-03-19T06:04:24;8.60;1.00
6018;DHT22;3037;51.068;13.780;2023-03-19T06:06:50;8.70;1.00
6018;DHT22;3037;51.068;13.780;2023-03-19T06:09:15;8.80;1.00
6018;DHT22;3037;51.068;13.780;2023-03-19T06:11:41;8.80;1.00
6018;DHT22;3037;51.068;13.780;2023-03-19T06:14:07;9.10;1.00
6018;DHT22;3037;51.068;13.780;2023-03-19T06:16:32;9.10;1.00
6018;DHT22;3037;51.068;13.780;2023-03-19T06:18:58;9.20;1.00
6018;DHT22;3037;51.068;13.780;2023-03-19T06:21:24;9.30;1.00
6018;DHT22;3037;51.068;13.780;2023-03-19T06:23:55;9.40;1.00
6018;DHT22;3037;51.068;13.780;2023-03-19T06:26:21;9.30;1.00
6018;DHT22;3037;51.068;13.780;2023-03-19T06:28:46;9.50;1.00
6018;DHT22;3037;51.068;13.780;2023-03-19T06:31:12;10.00;1.00
6018;DHT22;3037;51.068;13.780;2023-03-19T06:33:38;9.80;1.00
6018;DHT22;3037;51.068;13.780;2023-03-19T06:36:03;10.20;1.00
6018;DHT22;3037;51.068;13.780;2023-03-19T06:38:29;11.00;1.00
6018;DHT22;3037;51.068;13.780;2023-03-19T06:40:54;11.80;1.00
6018;DHT22;3037;51.068;13.780;2023-03-19T06:43:20;12.60;1.00
6018;DHT22;3037;51.068;13.780;2023-03-19T06:45:46;12.60;1.00
6018;DHT22;3037;51.068;13.780;2023-03-19T06:48:11;12.50;1.00
6018;DHT22;3037;51.068;13.780;2023-03-19T06:50:37;13.20;1.00
6018;DHT22;3037;51.068;13.780;2023-03-19T06:53:03;13.50;1.00
6018;DHT22;3037;51.068;13.780;2023-03-19T06:55:28;13.40;1.00
6018;DHT22;3037;51.068;13.780;2023-03-19T06:57:55;13.40;1.00
6018;DHT22;3037;51.068;13.780;2023-03-19T07:00:21;13.60;1.00
6018;DHT22;3037;51.068;13.780;2023-03-19T07:02:47;13.80;1.00
6018;DHT22;3037;51.068;13.780;2023-03-19T07:05:13;14.00;1.00
6018;DHT22;3037;51.068;13.780;2023-03-19T07:07:39;14.10;1.00
6018;DHT22;3037;51.068;13.780;2023-03-19T07:10:05;15.00;1.00
6018;DHT22;3037;51.068;13.780;2023-03-19T07:12:31;15.80;1.00
6018;DHT22;3037;51.068;13.780;2023-03-19T07:14:56;16.50;1.00
6018;DHT22;3037;51.068;13.780;2023-03-19T07:17:22;16.90;1.00
6018;DHT22;3037;51.068;13.780;2023-03-19T07:19:48;15.80;1.00
6018;DHT22;3037;51.068;13.780;2023-03-19T07:22:14;16.00;1.00
6018;DHT22;3037;51.068;13.780;2023-03-19T07:24:40;16.00;1.00
6018;DHT22;3037;51.068;13.780;2023-03-19T07:27:06;16.00;1.00
6018;DHT22;3037;51.068;13.780;2023-03-19T07:29:31;16.60;1.00
6018;DHT22;3037;51.068;13.780;2023-03-19T07:31:57;16.40;1.00
6018;DHT22;3037;51.068;13.780;2023-03-19T07:34:22;16.30;1.00
6018;DHT22;3037;51.068;13.780;2023-03-19T07:36:48;16.00;1.00
6018;DHT22;3037;51.068;13.780;2023-03-19T07:39:14;15.40;1.00
6018;DHT22;3037;51.068;13.780;2023-03-19T07:41:40;14.70;1.00
6018;DHT22;3037;51.068;13.780;2023-03-19T07:44:05;14.50;1.00
6018;DHT22;3037;51.068;13.780;2023-03-19T07:46:31;14.80;1.00
6018;DHT22;3037;51.068;13.780;2023-03-19T07:48:56;15.10;1.00
6018;DHT22;3037;51.068;13.780;2023-03-19T07:51:22;15.20;1.00
6018;DHT22;3037;51.068;13.780;2023-03-19T07:53:47;15.60;1.00
6018;DHT22;3037;51.068;13.780;2023-03-19T07:56:13;16.10;1.00
6018;DHT22;3037;51.068;13.780;2023-03-19T07:58:38;15.80;1.00
6018;DHT22;3037;51.068;13.780;2023-03-19T08:01:04;16.30;1.00
6018;DHT22;3037;51.068;13.780;2023-03-19T08:03:30;16.40;1.00
6018;DHT22;3037;51.068;13.780;2023-03-19T08:05:55;16.90;1.00
6018;DHT22;3037;51.068;13.780;2023-03-19T08:08:21;17.00;1.00
6018;DHT22;3037;51.068;13.780;2023-03-19T08:10:46;17.00;1.00
6018;DHT22;3037;51.068;13.780;2023-03-19T08:13:12;18.10;1.00
6018;DHT22;3037;51.068;13.780;2023-03-19T08:15:38;18.20;1.00
6018;DHT22;3037;51.068;13.780;2023-03-19T08:18:04;18.20;1.00
6018;DHT22;3037;51.068;13.780;2023-03-19T08:20:30;18.10;1.00
6018;DHT22;3037;51.068;13.780;2023-03-19T08:22:57;18.90;1.00
6018;DHT22;3037;51.068;13.780;2023-03-19T08:25:23;18.50;1.00
6018;DHT22;3037;51.068;13.780;2023-03-19T08:27:49;18.20;1.00
6018;DHT22;3037;51.068;13.780;2023-03-19T08:30:15;17.70;1.00
6018;DHT22;3037;51.068;13.780;2023-03-19T08:32:41;18.40;1.00
6018;DHT22;3037;51.068;13.780;2023-03-19T08:35:09;18.40;1.00
6018;DHT22;3037;51.068;13.780;2023-03-19T08:37:34;18.40;1.00
6018;DHT22;3037;51.068;13.780;2023-03-19T08:40:00;18.50;1.00
6018;DHT22;3037;51.068;13.780;2023-03-19T08:42:26;18.40;1.00
6018;DHT22;3037;51.068;13.780;2023-03-19T08:44:52;19.60;1.00
6018;DHT22;3037;51.068;13.780;2023-03-19T08:47:18;19.60;1.00
6018;DHT22;3037;51.068;13.780;2023-03-19T08:49:44;18.30;1.00
6018;DHT22;3037;51.068;13.780;2023-03-19T08:52:10;18.30;1.00
6018;DHT22;3037;51.068;13.780;2023-03-19T08:54:35;18.40;1.00
6018;DHT22;3037;51.068;13.780;2023-03-19T08:57:01;19.20;1.00
6018;DHT22;3037;51.068;13.780;2023-03-19T08:59:27;19.40;1.00
6018;DHT22;3037;51.068;13.780;2023-03-19T09:01:53;19.60;1.00
6018;DHT22;3037;51.068;13.780;2023-03-19T09:04:22;18.00;1.00
6018;DHT22;3037;51.068;13.780;2023-03-19T09:06:48;18.10;1.00
6018;DHT22;3037;51.068;13.780;2023-03-19T09:09:19;18.50;1.00
6018;DHT22;3037;51.068;13.780;2023-03-19T09:11:45;19.30;1.00
6018;DHT22;3037;51.068;13.780;2023-03-19T09:14:11;19.70;1.00
6018;DHT22;3037;51.068;13.780;2023-03-19T09:16:37;19.60;1.00
6018;DHT22;3037;51.068;13.780;2023-03-19T09:19:03;19.00;1.00
6018;DHT22;3037;51.068;13.780;2023-03-19T09:21:28;19.30;1.00
6018;DHT22;3037;51.068;13.780;2023-03-19T09:23:54;19.40;1.00
6018;DHT22;3037;51.068;13.780;2023-03-19T09:26:20;19.00;1.00
6018;DHT22;3037;51.068;13.780;2023-03-19T09:28:45;19.60;1.00
6018;DHT22;3037;51.068;13.780;2023-03-19T09:31:11;20.10;1.00
6018;DHT22;3037;51.068;13.780;2023-03-19T09:33:37;20.60;1.00
6018;DHT22;3037;51.068;13.780;2023-03-19T09:36:02;19.80;1.00
6018;DHT22;3037;51.068;13.780;2023-03-19T09:38:28;19.90;1.00
6018;DHT22;3037;51.068;13.780;2023-03-19T09:41:28;19.40;1.00
6018;DHT22;3037;51.068;13.780;2023-03-19T09:44:03;19.30;1.00
6018;DHT22;3037;51.068;13.780;2023-03-19T09:46:42;20.30;1.00
6018;DHT22;3037;51.068;13.780;2023-03-19T09:49:26;20.70;1.00
6018;DHT22;3037;51.068;13.780;2023-03-19T09:52:04;20.30;1.00
6018;DHT22;3037;51.068;13.780;2023-03-19T09:54:45;20.40;1.00
6018;DHT22;3037;51.068;13.780;2023-03-19T09:57:13;19.80;1.00
6018;DHT22;3037;51.068;13.780;2023-03-19T09:59:40;20.00;1.00
6018;DHT22;3037;51.068;13.780;2023-03-19T10:02:37;19.80;1.00
6018;DHT22;3037;51.068;13.780;2023-03-19T10:05:43;20.00;1.00
6018;DHT22;3037;51.068;13.780;2023-03-19T10:11:11;20.20;1.00
6018;DHT22;3037;51.068;13.780;2023-03-19T10:13:54;20.70;1.00
6018;DHT22;3037;51.068;13.780;2023-03-19T10:16:23;20.90;1.00
6018;DHT22;3037;51.068;13.780;2023-03-19T10:18:51;21.60;1.00
6018;DHT22;3037;51.068;13.780;2023-03-19T10:21:24;21.90;1.00
6018;DHT22;3037;51.068;13.780;2023-03-19T10:26:28;22.40;1.00
6018;DHT22;3037;51.068;13.780;2023-03-19T10:29:17;22.30;1.00
6018;DHT22;3037;51.068;13.780;2023-03-19T10:34:42;22.20;1.00
6018;DHT22;3037;51.068;13.780;2023-03-19T10:37:23;22.40;1.00
6018;DHT22;3037;51.068;13.780;2023-03-19T10:39:52;22.70;1.00
6018;DHT22;3037;51.068;13.780;2023-03-19T10:42:44;22.50;1.00
6018;DHT22;3037;51.068;13.780;2023-03-19T10:45:31;22.40;1.00
6018;DHT22;3037;51.068;13.780;2023-03-19T10:47:59;21.50;1.00
6018;DHT22;3037;51.068;13.780;2023-03-19T10:50:37;21.70;1.00
6018;DHT22;3037;51.068;13.780;2023-03-19T10:55:31;22.30;1.00
6018;DHT22;3037;51.068;13.780;2023-03-19T10:58:06;22.10;1.00
6018;DHT22;3037;51.068;13.780;2023-03-19T11:00:39;22.00;1.00
6018;DHT22;3037;51.068;13.780;2023-03-19T11:03:28;20.90;1.00
6018;DHT22;3037;51.068;13.780;2023-03-19T11:08:38;20.60;1.00
6018;DHT22;3037;51.068;13.780;2023-03-19T11:11:03;20.30;1.00
6018;DHT22;3037;51.068;13.780;2023-03-19T11:13:29;20.70;1.00
6018;DHT22;3037;51.068;13.780;2023-03-19T11:15:59;20.80;1.00
6018;DHT22;3037;51.068;13.780;2023-03-19T11:18:34;20.50;1.00
6018;DHT22;3037;51.068;13.780;2023-03-19T11:21:06;20.80;1.00
6018;DHT22;3037;51.068;13.780;2023-03-19T11:23:40;20.90;1.00
6018;DHT22;3037;51.068;13.780;2023-03-19T11:26:06;20.60;1.00
6018;DHT22;3037;51.068;13.780;2023-03-19T11:28:32;20.60;1.00
6018;DHT22;3037;51.068;13.780;2023-03-19T11:36:17;19.90;1.00
6018;DHT22;3037;51.068;13.780;2023-03-19T11:39:17;19.50;1.00
6018;DHT22;3037;51.068;13.780;2023-03-19T11:47:34;20.80;1.00
6018;DHT22;3037;51.068;13.780;2023-03-19T11:50:26;20.70;1.00
6018;DHT22;3037;51.068;13.780;2023-03-19T11:53:17;20.10;1.00
6018;DHT22;3037;51.068;13.780;2023-03-19T12:02:05;20.00;1.00
6018;DHT22;3037;51.068;13.780;2023-03-19T12:12:30;19.70;1.00
6018;DHT22;3037;51.068;13.780;2023-03-19T12:15:09;19.60;1.00
6018;DHT22;3037;51.068;13.780;2023-03-19T12:20:49;19.80;1.00
6018;DHT22;3037;51.068;13.780;2023-03-19T12:23:44;19.80;1.00
6018;DHT22;3037;51.068;13.780;2023-03-19T12:26:21;19.50;1.00
6018;DHT22;3037;51.068;13.780;2023-03-19T12:29:02;19.90;1.00
6018;DHT22;3037;51.068;13.780;2023-03-19T12:34:05;19.90;1.00
6018;DHT22;3037;51.068;13.780;2023-03-19T12:36:40;19.90;1.00
6018;DHT22;3037;51.068;13.780;2023-03-19T12:39:17;18.80;1.00
6018;DHT22;3037;51.068;13.780;2023-03-19T12:41:45;18.60;1.00
6018;DHT22;3037;51.068;13.780;2023-03-19T12:44:19;18.80;1.00
6018;DHT22;3037;51.068;13.780;2023-03-19T12:47:02;18.50;1.00
6018;DHT22;3037;51.068;13.780;2023-03-19T12:49:34;18.10;1.00
6018;DHT22;3037;51.068;13.780;2023-03-19T12:52:17;17.90;1.00
6018;DHT22;3037;51.068;13.780;2023-03-19T12:54:48;17.80;1.00
6018;DHT22;3037;51.068;13.780;2023-03-19T12:57:22;17.50;1.00
6018;DHT22;3037;51.068;13.780;2023-03-19T13:00:37;17.60;1.00
6018;DHT22;3037;51.068;13.780;2023-03-19T13:02:49;17.80;1.00
6018;DHT22;3037;51.068;13.780;2023-03-19T13:05:54;17.80;1.00
6018;DHT22;3037;51.068;13.780;2023-03-19T13:08:34;17.50;1.00
6018;DHT22;3037;51.068;13.780;2023-03-19T13:11:08;17.20;1.00
6018;DHT22;3037;51.068;13.780;2023-03-19T13:13:47;17.20;1.00
6018;DHT22;3037;51.068;13.780;2023-03-19T13:16:32;17.10;1.00
6018;DHT22;3037;51.068;13.780;2023-03-19T13:19:24;17.40;1.00
6018;DHT22;3037;51.068;13.780;2023-03-19T13:21:54;17.40;1.00
6018;DHT22;3037;51.068;13.780;2023-03-19T13:24:30;17.60;1.00
6018;DHT22;3037;51.068;13.780;2023-03-19T13:26:58;18.00;1.00
6018;DHT22;3037;51.068;13.780;2023-03-19T13:29:35;17.70;1.00
6018;DHT22;3037;51.068;13.780;2023-03-19T13:32:07;17.80;1.00
6018;DHT22;3037;51.068;13.780;2023-03-19T13:34:35;17.60;1.00
6018;DHT22;3037;51.068;13.780;2023-03-19T13:37:14;17.60;1.00
6018;DHT22;3037;51.068;13.780;2023-03-19T13:39:41;18.00;1.00
6018;DHT22;3037;51.068;13.780;2023-03-19T13:42:35;17.70;1.00
6018;DHT22;3037;51.068;13.780;2023-03-19T13:45:25;17.70;1.00
6018;DHT22;3037;51.068;13.780;2023-03-19T13:47:50;18.00;1.00
6018;DHT22;3037;51.068;13.780;2023-03-19T13:58:20;17.40;1.00
6018;DHT22;3037;51.068;13.780;2023-03-19T14:03:54;17.80;1.00
6018;DHT22;3037;51.068;13.780;2023-03-19T14:06:35;17.80;1.00
6018;DHT22;3037;51.068;13.780;2023-03-19T14:09:05;17.80;1.00
6018;DHT22;3037;51.068;13.780;2023-03-19T14:11:34;17.80;1.00
6018;DHT22;3037;51.068;13.780;2023-03-19T14:14:06;17.80;1.00
6018;DHT22;3037;51.068;13.780;2023-03-19T14:16:37;17.50;1.00
6018;DHT22;3037;51.068;13.780;2023-03-19T14:19:11;17.60;1.00
6018;DHT22;3037;51.068;13.780;2023-03-19T14:27:15;17.60;1.00
6018;DHT22;3037;51.068;13.780;2023-03-19T14:29:43;17.60;1.00
6018;DHT22;3037;51.068;13.780;2023-03-19T14:32:15;17.50;1.00
6018;DHT22;3037;51.068;13.780;2023-03-19T14:34:42;17.30;1.00
6018;DHT22;3037;51.068;13.780;2023-03-19T14:37:48;17.20;1.00
6018;DHT22;3037;51.068;13.780;2023-03-19T14:40:20;17.10;1.00
6018;DHT22;3037;51.068;13.780;2023-03-19T14:42:52;17.10;1.00
6018;DHT22;3037;51.068;13.780;2023-03-19T14:48:50;17.20;1.00
6018;DHT22;3037;51.068;13.780;2023-03-19T14:51:33;17.00;1.00
6018;DHT22;3037;51.068;13.780;2023-03-19T14:54:24;17.10;1.00
6018;DHT22;3037;51.068;13.780;2023-03-19T14:56:51;16.70;1.00
6018;DHT22;3037;51.068;13.780;2023-03-19T14:59:16;16.70;1.00
6018;DHT22;3037;51.068;13.780;2023-03-19T15:01:50;16.80;1.00
6018;DHT22;3037;51.068;13.780;2023-03-19T15:04:16;16.70;1.00
6018;DHT22;3037;51.068;13.780;2023-03-19T15:06:50;16.50;1.00
6018;DHT22;3037;51.068;13.780;2023-03-19T15:09:25;16.40;1.00
6018;DHT22;3037;51.068;13.780;2023-03-19T15:14:29;16.30;1.00
6018;DHT22;3037;51.068;13.780;2023-03-19T15:17:20;16.50;1.00
6018;DHT22;3037;51.068;13.780;2023-03-19T15:19:47;16.40;1.00
6018;DHT22;3037;51.068;13.780;2023-03-19T15:22:18;16.30;1.00
6018;DHT22;3037;51.068;13.780;2023-03-19T15:24:44;16.30;1.00
6018;DHT22;3037;51.068;13.780;2023-03-19T15:27:24;16.10;1.00
6018;DHT22;3037;51.068;13.780;2023-03-19T15:29:51;16.20;1.00
6018;DHT22;3037;51.068;13.780;2023-03-19T15:32:34;16.20;1.00
6018;DHT22;3037;51.068;13.780;2023-03-19T15:35:00;16.20;1.00
6018;DHT22;3037;51.068;13.780;2023-03-19T15:37:28;16.00;1.00
6018;DHT22;3037;51.068;13.780;2023-03-19T15:39:56;15.90;1.00
6018;DHT22;3037;51.068;13.780;2023-03-19T15:42:25;16.00;1.00
6018;DHT22;3037;51.068;13.780;2023-03-19T15:45:02;16.00;1.00
6018;DHT22;3037;51.068;13.780;2023-03-19T15:47:30;16.00;1.00
6018;DHT22;3037;51.068;13.780;2023-03-19T15:52:36;16.00;1.00
6018;DHT22;3037;51.068;13.780;2023-03-19T15:55:03;16.00;1.00
6018;DHT22;3037;51.068;13.780;2023-03-19T15:57:29;16.00;1.00
6018;DHT22;3037;51.068;13.780;2023-03-19T15:59:58;15.90;1.00
6018;DHT22;3037;51.068;13.780;2023-03-19T16:02:29;16.00;1.00
6018;DHT22;3037;51.068;13.780;2023-03-19T16:04:55;16.00;1.00
6018;DHT22;3037;51.068;13.780;2023-03-19T16:07:41;16.10;1.00
6018;DHT22;3037;51.068;13.780;2023-03-19T16:10:34;16.10;1.00
6018;DHT22;3037;51.068;13.780;2023-03-19T16:13:00;15.90;1.00
6018;DHT22;3037;51.068;13.780;2023-03-19T16:15:42;15.80;1.00
6018;DHT22;3037;51.068;13.780;2023-03-19T16:23:28;15.80;1.00
6018;DHT22;3037;51.068;13.780;2023-03-19T16:25:54;15.70;1.00
6018;DHT22;3037;51.068;13.780;2023-03-19T16:28:20;15.70;1.00
6018;DHT22;3037;51.068;13.780;2023-03-19T16:30:49;15.40;1.00
6018;DHT22;3037;51.068;13.780;2023-03-19T16:33:16;15.30;1.00
6018;DHT22;3037;51.068;13.780;2023-03-19T16:35:42;15.20;1.00
6018;DHT22;3037;51.068;13.780;2023-03-19T16:38:24;15.30;1.00
6018;DHT22;3037;51.068;13.780;2023-03-19T16:41:22;15.30;1.00
6018;DHT22;3037;51.068;13.780;2023-03-19T16:43:51;15.10;1.00
6018;DHT22;3037;51.068;13.780;2023-03-19T16:46:17;15.10;1.00
6018;DHT22;3037;51.068;13.780;2023-03-19T16:48:42;14.90;1.00
6018;DHT22;3037;51.068;13.780;2023-03-19T16:51:16;14.80;66.00
6018;DHT22;3037;51.068;13.780;2023-03-19T16:53:42;14.60;99.90
6018;DHT22;3037;51.068;13.780;2023-03-19T16:56:12;14.50;99.90
6018;DHT22;3037;51.068;13.780;2023-03-19T16:58:40;14.50;99.90
6018;DHT22;3037;51.068;13.780;2023-03-19T17:01:33;14.40;99.90
6018;DHT22;3037;51.068;13.780;2023-03-19T17:03:58;14.40;99.90
6018;DHT22;3037;51.068;13.780;2023-03-19T17:06:24;14.30;99.90
6018;DHT22;3037;51.068;13.780;2023-03-19T17:08:51;14.30;99.90
6018;DHT22;3037;51.068;13.780;2023-03-19T17:11:27;14.20;99.90
6018;DHT22;3037;51.068;13.780;2023-03-19T17:13:54;14.10;99.90
6018;DHT22;3037;51.068;13.780;2023-03-19T17:16:21;14.10;1.00
6018;DHT22;3037;51.068;13.780;2023-03-19T17:18:46;14.00;1.00
6018;DHT22;3037;51.068;13.780;2023-03-19T17:21:29;13.90;1.00
6018;DHT22;3037;51.068;13.780;2023-03-19T17:23:56;13.90;1.00
6018;DHT22;3037;51.068;13.780;2023-03-19T17:26:23;13.80;1.00
6018;DHT22;3037;51.068;13.780;2023-03-19T17:28:53;13.90;1.00
6018;DHT22;3037;51.068;13.780;2023-03-19T17:31:24;13.80;1.00
6018;DHT22;3037;51.068;13.780;2023-03-19T17:33:51;13.70;1.00
6018;DHT22;3037;51.068;13.780;2023-03-19T17:36:19;13.60;1.00
6018;DHT22;3037;51.068;13.780;2023-03-19T17:38:44;13.50;1.00
6018;DHT22;3037;51.068;13.780;2023-03-19T17:41:16;13.40;99.90